Harrisburg, Missouri
Current Conditions -  °F | °C
As of 2:55 AM on Wednesday 26 Nov 2014 (Local Time) from KVER Reporting Station
Overcast Overcast  
Wind Chill: 24°   Ceiling: 10000
Heat Index: 31°   Visibility: 10mi
Dew Point: 20°   Wind: 7mph
Humidity: 64%   Direction: 110°ESE
Pressure: 30.01"   Gusts: NA
Location:  39.14°N, 92.46°W
Report Text: KVER 260855Z AUTO 11006KT 10SM OVC100 00/M06 A3001 RMK AO2 T10051065
Loading
Personal Weather Stations






























Interactive Weather Map New forecast layout! Learn more

10-Day Weather Forecast

Advertisements
Track Severe Weather on mobile